createdAt,value
2019-06-10T00:00:55.523Z,19.95
2019-06-10T00:04:22.546Z,19.92
2019-06-10T00:07:45.978Z,19.91
2019-06-10T00:11:11.818Z,19.91
2019-06-10T00:14:35.205Z,19.93
2019-06-10T00:18:38.171Z,19.94
2019-06-10T00:22:12.013Z,19.91
2019-06-10T00:25:35.494Z,19.87
2019-06-10T00:29:03.088Z,19.81
2019-06-10T00:32:34.929Z,19.77
2019-06-10T00:36:01.668Z,19.76
2019-06-10T00:39:36.465Z,19.71
2019-06-10T00:43:04.107Z,19.68
2019-06-10T00:46:36.389Z,19.63
2019-06-10T00:50:06.693Z,19.57
2019-06-10T00:53:38.073Z,19.53
2019-06-10T00:57:04.312Z,19.52
2019-06-10T01:00:28.928Z,19.5
2019-06-10T01:03:55.054Z,19.45
2019-06-10T01:07:18.456Z,19.41
2019-06-10T01:10:44.383Z,19.39
2019-06-10T01:14:07.874Z,19.39
2019-06-10T01:17:36.623Z,19.41
2019-06-10T01:21:02.229Z,19.42
2019-06-10T01:24:27.097Z,19.4
2019-06-10T01:27:51.783Z,19.37
2019-06-10T01:31:24.065Z,19.34
2019-06-10T01:34:47.928Z,19.3
2019-06-10T01:38:16.571Z,19.28
2019-06-10T01:41:41.400Z,19.27
2019-06-10T01:45:04.924Z,19.28
2019-06-10T01:48:48.029Z,19.28
2019-06-10T01:52:18.349Z,19.23
2019-06-10T01:55:44.570Z,19.15
2019-06-10T01:59:10.927Z,19.14
2019-06-10T02:02:45.206Z,19.11
2019-06-10T02:06:12.457Z,19.06
2019-06-10T02:09:48.989Z,18.99
2019-06-10T02:13:17.326Z,18.93
2019-06-10T02:16:41.754Z,18.87
2019-06-10T02:20:05.196Z,18.83
2019-06-10T02:23:31.808Z,18.81
2019-06-10T02:26:55.276Z,18.8
2019-06-10T02:30:45.461Z,18.8
2019-06-10T02:34:27.653Z,18.78
2019-06-10T02:37:54.267Z,18.78
2019-06-10T02:41:31.179Z,18.8
2019-06-10T02:45:04.110Z,18.85
2019-06-10T02:48:34.133Z,18.89
2019-06-10T02:51:59.121Z,18.95
2019-06-10T02:55:34.907Z,19
2019-06-10T02:58:58.756Z,19.05
2019-06-10T03:02:32.911Z,19.07
2019-06-10T03:06:00.220Z,19.09
2019-06-10T03:09:36.027Z,19.07
2019-06-10T03:13:02.581Z,19.05
2019-06-10T03:16:26.149Z,19.04
2019-06-10T03:19:53.551Z,19.01
2019-06-10T03:23:18.225Z,18.96
2019-06-10T03:26:43.159Z,18.89
2019-06-10T03:30:25.997Z,18.86
2019-06-10T03:34:37.100Z,18.85
2019-06-10T03:38:12.621Z,18.83
2019-06-10T03:41:36.076Z,18.81
2019-06-10T03:44:59.580Z,18.79
2019-06-10T03:48:26.813Z,18.76
2019-06-10T03:51:53.214Z,18.74
2019-06-10T03:55:17.510Z,18.76
2019-06-10T03:58:43.422Z,18.79
2019-06-10T04:02:06.851Z,18.79
2019-06-10T04:05:30.370Z,18.79
2019-06-10T04:08:56.424Z,18.81
2019-06-10T04:12:19.881Z,18.88
2019-06-10T04:15:43.451Z,18.99
2019-06-10T04:19:06.884Z,19.11
2019-06-10T04:22:32.797Z,19.26
2019-06-10T04:25:56.431Z,19.39
2019-06-10T04:29:23.065Z,19.5
2019-06-10T04:32:53.219Z,19.66
2019-06-10T04:36:16.697Z,19.82
2019-06-10T04:39:43.033Z,19.97
2019-06-10T04:43:06.416Z,20.07
2019-06-10T04:46:29.847Z,20.09
2019-06-10T04:49:55.822Z,20.13
2019-06-10T04:53:20.638Z,20.22
2019-06-10T04:56:53.164Z,20.33
2019-06-10T05:00:16.654Z,20.53
2019-06-10T05:03:40.106Z,20.89
2019-06-10T05:07:06.435Z,21.93
2019-06-10T05:10:30.168Z,22.36
2019-06-10T05:13:56.419Z,22.32
2019-06-10T05:17:19.945Z,22.26
2019-06-10T05:20:58.847Z,22.34
2019-06-10T05:24:29.352Z,22.38
2019-06-10T05:27:57.827Z,22.33
2019-06-10T05:31:28.273Z,22.31
2019-06-10T05:34:58.384Z,22.4
2019-06-10T05:38:27.464Z,22.57
2019-06-10T05:41:58.484Z,22.85
2019-06-10T05:45:27.504Z,23.09
2019-06-10T05:48:58.312Z,23.25
2019-06-10T05:52:25.838Z,23.85
2019-06-10T05:55:53.273Z,24.7
2019-06-10T05:59:16.769Z,25.47
2019-06-10T06:02:40.282Z,26.14
2019-06-10T06:06:06.479Z,26.45
2019-06-10T06:09:35.206Z,26.65
2019-06-10T06:12:58.780Z,26.77
2019-06-10T06:16:23.370Z,26.91
2019-06-10T06:19:46.759Z,26.96
2019-06-10T06:23:12.419Z,26.9
2019-06-10T06:53:29.785Z,24.18
2019-06-10T06:57:19.309Z,23.99
2019-06-10T07:01:10.019Z,24.11
2019-06-10T07:04:40.222Z,24.28
2019-06-10T07:08:12.908Z,24.43
2019-06-10T07:11:44.739Z,24.63
2019-06-10T07:15:09.303Z,24.97
2019-06-10T07:18:50.074Z,25.36
2019-06-10T07:22:18.562Z,25.67
2019-06-10T07:25:47.889Z,25.86
2019-06-10T07:29:13.514Z,25.91
2019-06-10T07:32:45.299Z,25.82
2019-06-10T07:36:16.291Z,25.67
2019-06-10T07:39:45.644Z,25.31
2019-06-10T07:43:09.250Z,25.1
2019-06-10T07:46:36.075Z,25.07
2019-06-10T07:50:03.345Z,25.21
2019-06-10T07:53:26.726Z,25.34
2019-06-10T07:56:53.958Z,25.47
2019-06-10T08:00:17.569Z,25.58
2019-06-10T08:06:37.857Z,25.87
2019-06-10T08:10:03.179Z,26.17
2019-06-10T08:13:26.621Z,26.55
2019-06-10T08:16:52.890Z,26.91
2019-06-10T08:20:16.736Z,27.23
2019-06-10T08:23:46.522Z,27.66
2019-06-10T08:27:12.342Z,28.06
2019-06-10T08:30:35.834Z,28.14
2019-06-10T08:33:59.237Z,28.14
2019-06-10T08:37:23.773Z,28.16
2019-06-10T08:40:48.794Z,28.25
2019-06-10T08:44:12.721Z,28.23
2019-06-10T08:47:37.273Z,28.29
2019-06-10T08:51:04.288Z,28.44
2019-06-10T08:54:27.674Z,28.7
2019-06-10T08:57:54.115Z,28.95
2019-06-10T09:01:17.510Z,29.12
2019-06-10T09:04:49.106Z,29.36
2019-06-10T09:08:17.083Z,29.75
2019-06-10T09:11:47.811Z,30.13
2019-06-10T09:15:18.030Z,30.3
2019-06-10T09:18:47.965Z,30.42
2019-06-10T09:22:18.681Z,30.63
2019-06-10T09:25:52.891Z,30.86
2019-06-10T09:29:22.557Z,30.9
2019-06-10T09:32:53.550Z,30.97
2019-06-10T09:36:27.960Z,31.02
2019-06-10T09:39:59.894Z,31.1
2019-06-10T09:43:26.705Z,31.2
2019-06-10T09:46:56.042Z,31.38
2019-06-10T09:50:26.607Z,31.58
2019-06-10T09:54:06.287Z,31.73
2019-06-10T09:57:32.482Z,32
2019-06-10T10:00:58.325Z,32.31
2019-06-10T10:04:23.880Z,32.53
2019-06-10T10:07:56.242Z,32.64
2019-06-10T10:11:26.154Z,32.7
2019-06-10T10:14:56.620Z,32.59
2019-06-10T10:18:20.127Z,32.5
2019-06-10T10:21:53.314Z,32.52
2019-06-10T10:25:23.863Z,32.47
2019-06-10T10:28:53.093Z,32.21
2019-06-10T10:32:23.521Z,31.86
2019-06-10T10:35:49.599Z,31.56
2019-06-10T10:39:14.322Z,31.49
2019-06-10T10:42:51.898Z,31.53
2019-06-10T10:46:57.177Z,31.55
2019-06-10T10:50:22.764Z,31.61
2019-06-10T10:54:17.602Z,31.77
2019-06-10T10:58:00.069Z,32.03
2019-06-10T11:01:26.116Z,32.16
2019-06-10T11:04:49.929Z,32.36
2019-06-10T11:08:20.011Z,32.48
2019-06-10T11:11:47.433Z,32.57
2019-06-10T11:15:14.018Z,32.68
2019-06-10T11:18:37.482Z,32.72
2019-06-10T11:22:03.173Z,32.69
2019-06-10T11:25:26.623Z,32.64
2019-06-10T11:28:52.785Z,32.6
2019-06-10T11:32:19.131Z,32.56
2019-06-10T11:35:43.088Z,32.59
2019-06-10T11:39:06.596Z,32.48
2019-06-10T11:42:30.041Z,32.14
2019-06-10T11:46:07.385Z,32.07
2019-06-10T11:49:31.560Z,32.28
2019-06-10T11:53:01.270Z,32.45
2019-06-10T11:56:27.669Z,32.57
2019-06-10T11:59:56.408Z,32.62
2019-06-10T12:03:23.373Z,32.6
2019-06-10T12:06:46.853Z,32.64
2019-06-10T12:10:13.160Z,32.84
2019-06-10T12:13:36.660Z,33
2019-06-10T12:17:41.392Z,33.07
2019-06-10T12:21:33.904Z,33.08
2019-06-10T12:25:34.918Z,33.01
2019-06-10T12:29:06.060Z,33.01
2019-06-10T12:32:29.554Z,32.96
2019-06-10T12:36:01.192Z,32.88
2019-06-10T12:39:30.849Z,32.89
2019-06-10T12:43:00.274Z,32.93
2019-06-10T12:46:33.057Z,32.95
2019-06-10T12:49:59.109Z,33.01
2019-06-10T12:53:24.001Z,33.08
2019-06-10T12:56:47.500Z,33.05
2019-06-10T13:00:26.288Z,32.94
2019-06-10T13:03:53.823Z,32.98
2019-06-10T13:07:19.056Z,33.12
2019-06-10T13:10:43.339Z,33.33
2019-06-10T13:14:08.619Z,33.5
2019-06-10T13:17:32.143Z,33.65
2019-06-10T13:21:02.362Z,33.73
2019-06-10T13:30:25.668Z,33.76
2019-06-10T13:33:49.151Z,33.69
2019-06-10T13:37:16.407Z,33.65
2019-06-10T13:40:39.865Z,33.57
2019-06-10T13:44:06.605Z,33.59
2019-06-10T13:47:33.492Z,33.29
2019-06-10T13:50:56.853Z,33.12
2019-06-10T13:54:22.850Z,33.12
2019-06-10T13:57:46.231Z,33.13
2019-06-10T14:01:21.767Z,33.16
2019-06-10T14:04:45.761Z,33.19
2019-06-10T14:08:15.023Z,33.17
2019-06-10T14:11:38.900Z,33.06
2019-06-10T14:15:08.004Z,33.04
2019-06-10T14:18:42.519Z,32.95
2019-06-10T14:22:09.586Z,32.91
2019-06-10T14:25:39.512Z,32.57
2019-06-10T14:29:07.594Z,32.12
2019-06-10T14:32:37.247Z,31.83
2019-06-10T14:36:00.607Z,31.64
2019-06-10T14:39:24.199Z,31.49
2019-06-10T14:42:47.712Z,31.38
2019-06-10T14:46:17.381Z,31.24
2019-06-10T14:49:42.755Z,31.19
2019-06-10T14:53:07.209Z,31.01
2019-06-10T14:56:33.577Z,31.04
2019-06-10T15:00:20.121Z,31.09
2019-06-10T15:03:43.546Z,30.96
2019-06-10T15:07:07.447Z,30.77
2019-06-10T15:10:32.607Z,30.7
2019-06-10T15:13:57.420Z,30.84
2019-06-10T15:17:20.868Z,30.87
2019-06-10T15:20:44.300Z,30.9
2019-06-10T15:24:08.091Z,31
2019-06-10T15:27:34.224Z,30.98
2019-06-10T15:30:57.605Z,31.04
2019-06-10T15:34:20.974Z,31.08
2019-06-10T15:37:44.407Z,31.08
2019-06-10T15:41:09.282Z,31
2019-06-10T15:44:55.820Z,30.89
2019-06-10T15:48:25.494Z,30.86
2019-06-10T15:51:49.003Z,30.71
2019-06-10T15:55:48.158Z,30.51
2019-06-10T16:00:21.517Z,30.41
2019-06-10T16:03:53.088Z,30.41
2019-06-10T16:07:19.265Z,30.32
2019-06-10T16:10:48.833Z,30.37
2019-06-10T16:14:12.798Z,30.5
2019-06-10T16:17:37.852Z,30.63
2019-06-10T16:21:04.710Z,30.73
2019-06-10T16:24:28.138Z,30.71
2019-06-10T16:27:54.709Z,30.6
2019-06-10T16:31:18.482Z,30.45
2019-06-10T16:34:44.167Z,30.15
2019-06-10T16:38:07.509Z,30
